No se requiere un especial cuidado respecto a la situación meteorológica. No hay avisos

Informes METAR

 

LEZL - Sevilla, Spain
Distancia de la estación: ENE 8km
Actualización: 24/10/2014 12:00
Despejado
Despejado
 Viento de NE
Viento: NE 22 km/h
Temperatura: 24°C
Rocío: 6°C
Humedad: 31%
Barómetro: 1017 hPa
Resumen: Despejado
Visibilidad: mayor de 10 km
2014/10/24 10:00 LEZL 241000Z 05012KT CAVOK 24/06 Q1017 NOSIG
LEMO - Morón, Spain
Distancia de la estación: SE 43km
Actualización: 24/10/2014 12:00
Despejado
Despejado
 Viento de ENE
Viento: ENE 19 km/h
Temperatura: 24°C
Rocío: 8°C
Humedad: 36%
Barómetro: 1016 hPa
Resumen: Despejado
Visibilidad: mayor de 10 km
2014/10/24 10:00 LEMO 241000Z 06010KT CAVOK 24/08 Q1016 NOSIG
LEJR - Jeréz, Spain
Distancia de la estación: S 71km
Actualización: 24/10/2014 12:00
Despejado
Despejado
 Viento de calm
Viento: Calma
Temperatura: 23°C
Rocío: 13°C
Humedad: 53%
Barómetro: 1016 hPa
Resumen: Despejado
Visibilidad: mayor de 10 km
2014/10/24 10:00 LEJR 241000Z 00000KT CAVOK 23/13 Q1016
 
LERT - Rota, Spain
Distancia de la estación: SSO 89km
Actualización: 24/10/2014 12:00
Despejado
Despejado
 Viento de NE
Viento: NE 7 km/h
Temperatura: 23°C
Rocío: 9°C
Humedad: 41%
Barómetro: 1016 hPa
Resumen: Despejado
Visibilidad: mayor de 10 km
2014/10/24 10:00 LERT 241000Z 05004KT 020V090 CAVOK 23/09 Q1016 NOSIG
LEMG - Málaga, Spain
Distancia de la estación: ESE 157km
Actualización: 24/10/2014 12:00
Despejado
Despejado
 Viento de variable
Viento: variable 4 km/h
Temperatura: 21°C
Rocío: 15°C
Humedad: 69%
Barómetro: 1017 hPa
Resumen: Despejado
Visibilidad: mayor de 10 km
2014/10/24 10:00 LEMG 241000Z VRB02KT CAVOK 21/15 Q1017 NOSIG
LEBA - Córdoba, Spain
Distancia de la estación: ENE 115km
Actualización: 24/10/2014 12:00
Despejado
Despejado
 Viento de E
Viento: E 13 km/h
Temperatura: 22°C
Rocío: 9°C
Humedad: 44%
Barómetro: 1018 hPa
Resumen: Despejado
Visibilidad: mayor de 10 km
2014/10/24 10:00 LEBA 241000Z 09007KT CAVOK 22/09 Q1018
 
LEGR - Granada, Spain
Distancia de la estación: E 198km
Actualización: 24/10/2014 12:00
Despejado
Despejado
 Viento de calm
Viento: Calma
Temperatura: 19°C
Rocío: 8°C
Humedad: 49%
Barómetro: 1020 hPa
Resumen: Despejado
Visibilidad: mayor de 10 km
2014/10/24 10:00 LEGR 241000Z 00000KT CAVOK 19/08 Q1020
LEAM - Almería, Spain
Distancia de la estación: E 326km
Actualización: 24/10/2014 12:00
Despejado
Despejado
 Viento de S
Viento: S 6 km/h
Temperatura: 22°C
Rocío: 15°C
Humedad: 65%
Barómetro: 1017 hPa
Resumen: Despejado
Visibilidad: mayor de 10 km
2014/10/24 10:00 LEAM 241000Z 17003KT 120V210 CAVOK 22/15 Q1017
LEMD - Madrid/Barajas, Spain
Distancia de la estación: NNE 402km
Actualización: 24/10/2014 12:00
Despejado
Despejado
 Viento de SSE
Viento: SSE 7 km/h
Temperatura: 19°C
Rocío: 8°C
Humedad: 49%
Barómetro: 1021 hPa
Resumen: Despejado
Visibilidad: mayor de 10 km
2014/10/24 10:00 LEMD 241000Z 16004KT 120V250 CAVOK 19/08 Q1021 NOSIG
 
LEVD - Valladolid, Spain
Distancia de la estación: N 492km
Actualización: 24/10/2014 12:00
Despejado
Despejado
 Viento de calm
Viento: Calma
Temperatura: 15°C
Rocío: 8°C
Humedad: 63%
Barómetro: 1024 hPa
Resumen: Despejado
Visibilidad: mayor de 10 km
2014/10/24 10:00 LEVD 241000Z 00000KT CAVOK 15/08 Q1024
LEBL - Barcelona, Spain
Distancia de la estación: NE 816km
Actualización: 24/10/2014 12:00
Despejado
Despejado
 Viento de NO
Viento: NO 15 km/h
Temperatura: 21°C
Rocío: 4°C
Humedad: 33%
Barómetro: 1017 hPa
Resumen: Despejado
Visibilidad: mayor de 10 km
2014/10/24 10:00 LEBL 241000Z 32008KT 280V360 CAVOK 21/04 Q1017 NOSIG
LEVC - Valencia, Spain
Distancia de la estación: ENE 535km
Actualización: 24/10/2014 12:00
Despejado
Despejado
 Viento de OSO
Viento: OSO 7 km/h
Temperatura: 26°C
Rocío: 4°C
Humedad: 24%
Barómetro: 1018 hPa
Resumen: Despejado
Visibilidad: mayor de 10 km
2014/10/24 10:00 LEVC 241000Z 24004KT 210V280 CAVOK 26/04 Q1018 NOSIG